sensor_id;sensor_type;location;lat;lon;timestamp;temperature;humidity
1994;DHT22;998;49.906;10.908;2023-08-01T00:00:24;18.40;99.90
1994;DHT22;998;49.906;10.908;2023-08-01T00:02:52;18.30;99.90
1994;DHT22;998;49.906;10.908;2023-08-01T00:05:21;18.30;99.90
1994;DHT22;998;49.906;10.908;2023-08-01T00:07:48;18.40;99.90
1994;DHT22;998;49.906;10.908;2023-08-01T00:10:15;18.40;99.90
1994;DHT22;998;49.906;10.908;2023-08-01T00:12:43;18.30;99.90
1994;DHT22;998;49.906;10.908;2023-08-01T00:15:11;18.30;99.90
1994;DHT22;998;49.906;10.908;2023-08-01T00:17:38;18.40;99.90
1994;DHT22;998;49.906;10.908;2023-08-01T00:20:06;18.40;99.90
1994;DHT22;998;49.906;10.908;2023-08-01T00:22:35;18.40;99.90
1994;DHT22;998;49.906;10.908;2023-08-01T00:25:03;18.30;99.90
1994;DHT22;998;49.906;10.908;2023-08-01T00:27:31;18.30;99.90
1994;DHT22;998;49.906;10.908;2023-08-01T00:29:59;18.30;99.90
1994;DHT22;998;49.906;10.908;2023-08-01T00:32:26;18.30;99.90
1994;DHT22;998;49.906;10.908;2023-08-01T00:34:53;18.20;99.90
1994;DHT22;998;49.906;10.908;2023-08-01T00:37:21;18.10;99.90
1994;DHT22;998;49.906;10.908;2023-08-01T00:39:50;18.10;99.90
1994;DHT22;998;49.906;10.908;2023-08-01T00:42:17;18.10;99.90
1994;DHT22;998;49.906;10.908;2023-08-01T00:44:45;18.10;99.90
1994;DHT22;998;49.906;10.908;2023-08-01T00:47:13;18.10;99.90
1994;DHT22;998;49.906;10.908;2023-08-01T00:49:41;18.10;99.90
1994;DHT22;998;49.906;10.908;2023-08-01T00:52:09;18.10;99.90
1994;DHT22;998;49.906;10.908;2023-08-01T00:54:37;18.10;99.90
1994;DHT22;998;49.906;10.908;2023-08-01T00:57:07;18.10;99.90
1994;DHT22;998;49.906;10.908;2023-08-01T00:59:35;18.10;99.90
1994;DHT22;998;49.906;10.908;2023-08-01T01:02:02;18.10;99.90
1994;DHT22;998;49.906;10.908;2023-08-01T01:04:30;18.00;99.90
1994;DHT22;998;49.906;10.908;2023-08-01T01:07:02;17.90;99.90
1994;DHT22;998;49.906;10.908;2023-08-01T01:09:30;18.00;99.90
1994;DHT22;998;49.906;10.908;2023-08-01T01:11:58;17.90;99.90
1994;DHT22;998;49.906;10.908;2023-08-01T01:14:28;17.90;99.90
1994;DHT22;998;49.906;10.908;2023-08-01T01:16:55;17.90;99.90
1994;DHT22;998;49.906;10.908;2023-08-01T01:19:23;17.90;99.90
1994;DHT22;998;49.906;10.908;2023-08-01T01:21:52;17.80;99.90
1994;DHT22;998;49.906;10.908;2023-08-01T01:24:19;17.80;99.90
1994;DHT22;998;49.906;10.908;2023-08-01T01:26:48;17.80;99.90
1994;DHT22;998;49.906;10.908;2023-08-01T01:29:16;17.70;99.90
1994;DHT22;998;49.906;10.908;2023-08-01T01:31:44;17.70;99.90
1994;DHT22;998;49.906;10.908;2023-08-01T01:34:12;17.70;99.90
1994;DHT22;998;49.906;10.908;2023-08-01T01:36:39;17.70;99.90
1994;DHT22;998;49.906;10.908;2023-08-01T01:39:08;17.60;99.90
1994;DHT22;998;49.906;10.908;2023-08-01T01:41:36;17.60;99.90
1994;DHT22;998;49.906;10.908;2023-08-01T01:44:03;17.60;99.90
1994;DHT22;998;49.906;10.908;2023-08-01T01:46:31;17.60;99.90
1994;DHT22;998;49.906;10.908;2023-08-01T01:48:58;17.50;99.90
1994;DHT22;998;49.906;10.908;2023-08-01T01:51:27;17.60;99.90
1994;DHT22;998;49.906;10.908;2023-08-01T01:53:55;17.60;99.90
1994;DHT22;998;49.906;10.908;2023-08-01T01:56:24;17.60;99.90
1994;DHT22;998;49.906;10.908;2023-08-01T01:58:51;17.70;99.90
1994;DHT22;998;49.906;10.908;2023-08-01T02:01:18;17.70;99.90
1994;DHT22;998;49.906;10.908;2023-08-01T02:03:45;17.60;99.90
1994;DHT22;998;49.906;10.908;2023-08-01T02:06:12;17.50;99.90
1994;DHT22;998;49.906;10.908;2023-08-01T02:08:40;17.50;99.90
1994;DHT22;998;49.906;10.908;2023-08-01T02:11:07;17.50;99.90
1994;DHT22;998;49.906;10.908;2023-08-01T02:13:36;17.50;99.90
1994;DHT22;998;49.906;10.908;2023-08-01T02:16:04;17.50;99.90
1994;DHT22;998;49.906;10.908;2023-08-01T02:18:31;17.50;99.90
1994;DHT22;998;49.906;10.908;2023-08-01T02:20:58;17.50;99.90
1994;DHT22;998;49.906;10.908;2023-08-01T02:23:26;17.50;99.90
1994;DHT22;998;49.906;10.908;2023-08-01T02:25:53;17.50;99.90
1994;DHT22;998;49.906;10.908;2023-08-01T02:28:20;17.50;99.90
1994;DHT22;998;49.906;10.908;2023-08-01T02:30:49;17.50;99.90
1994;DHT22;998;49.906;10.908;2023-08-01T02:33:17;17.50;99.90
1994;DHT22;998;49.906;10.908;2023-08-01T02:35:46;17.40;99.90
1994;DHT22;998;49.906;10.908;2023-08-01T02:38:14;17.50;99.90
1994;DHT22;998;49.906;10.908;2023-08-01T02:40:41;17.40;99.90
1994;DHT22;998;49.906;10.908;2023-08-01T02:43:08;17.50;99.90
1994;DHT22;998;49.906;10.908;2023-08-01T02:45:36;17.50;99.90
1994;DHT22;998;49.906;10.908;2023-08-01T02:48:05;17.50;99.90
1994;DHT22;998;49.906;10.908;2023-08-01T02:50:32;17.50;99.90
1994;DHT22;998;49.906;10.908;2023-08-01T02:52:59;17.50;99.90
1994;DHT22;998;49.906;10.908;2023-08-01T02:55:27;17.50;99.90
1994;DHT22;998;49.906;10.908;2023-08-01T02:57:54;17.50;99.90
1994;DHT22;998;49.906;10.908;2023-08-01T03:00:22;17.50;99.90
1994;DHT22;998;49.906;10.908;2023-08-01T03:02:49;17.60;99.90
1994;DHT22;998;49.906;10.908;2023-08-01T03:05:18;17.50;99.90
1994;DHT22;998;49.906;10.908;2023-08-01T03:07:45;17.50;99.90
1994;DHT22;998;49.906;10.908;2023-08-01T03:10:12;17.50;99.90
1994;DHT22;998;49.906;10.908;2023-08-01T03:12:40;17.50;99.90
1994;DHT22;998;49.906;10.908;2023-08-01T03:15:08;17.60;99.90
1994;DHT22;998;49.906;10.908;2023-08-01T03:17:35;17.60;99.90
1994;DHT22;998;49.906;10.908;2023-08-01T03:20:03;17.60;99.90
1994;DHT22;998;49.906;10.908;2023-08-01T03:22:31;17.60;99.90
1994;DHT22;998;49.906;10.908;2023-08-01T03:24:58;17.50;99.90
1994;DHT22;998;49.906;10.908;2023-08-01T03:27:26;17.60;99.90
1994;DHT22;998;49.906;10.908;2023-08-01T03:29:53;17.50;99.90
1994;DHT22;998;49.906;10.908;2023-08-01T03:32:21;17.60;99.90
1994;DHT22;998;49.906;10.908;2023-08-01T03:34:48;17.60;99.90
1994;DHT22;998;49.906;10.908;2023-08-01T03:37:16;17.50;99.90
1994;DHT22;998;49.906;10.908;2023-08-01T03:39:45;17.50;99.90
1994;DHT22;998;49.906;10.908;2023-08-01T03:42:12;17.50;99.90
1994;DHT22;998;49.906;10.908;2023-08-01T03:44:40;17.50;99.90
1994;DHT22;998;49.906;10.908;2023-08-01T03:47:07;17.50;99.90
1994;DHT22;998;49.906;10.908;2023-08-01T03:49:34;17.50;99.90
1994;DHT22;998;49.906;10.908;2023-08-01T03:52:02;17.50;99.90
1994;DHT22;998;49.906;10.908;2023-08-01T03:54:29;17.50;99.90
1994;DHT22;998;49.906;10.908;2023-08-01T03:56:58;17.50;99.90
1994;DHT22;998;49.906;10.908;2023-08-01T03:59:25;17.50;99.90
1994;DHT22;998;49.906;10.908;2023-08-01T04:01:53;17.50;99.90
1994;DHT22;998;49.906;10.908;2023-08-01T04:04:20;17.50;99.90
1994;DHT22;998;49.906;10.908;2023-08-01T04:06:48;17.50;99.90
1994;DHT22;998;49.906;10.908;2023-08-01T04:09:15;17.70;99.90
1994;DHT22;998;49.906;10.908;2023-08-01T04:11:42;17.60;99.90
1994;DHT22;998;49.906;10.908;2023-08-01T04:14:11;17.60;99.90
1994;DHT22;998;49.906;10.908;2023-08-01T04:16:39;17.60;99.90
1994;DHT22;998;49.906;10.908;2023-08-01T04:19:06;17.60;99.90
1994;DHT22;998;49.906;10.908;2023-08-01T04:21:34;17.60;99.90
1994;DHT22;998;49.906;10.908;2023-08-01T04:24:01;17.60;99.90
1994;DHT22;998;49.906;10.908;2023-08-01T04:26:28;17.70;99.90
1994;DHT22;998;49.906;10.908;2023-08-01T04:28:56;17.60;99.90
1994;DHT22;998;49.906;10.908;2023-08-01T04:31:24;17.70;99.90
1994;DHT22;998;49.906;10.908;2023-08-01T04:33:52;17.70;99.90
1994;DHT22;998;49.906;10.908;2023-08-01T04:36:19;17.60;99.90
1994;DHT22;998;49.906;10.908;2023-08-01T04:38:47;17.60;99.90
1994;DHT22;998;49.906;10.908;2023-08-01T04:41:14;17.60;99.90
1994;DHT22;998;49.906;10.908;2023-08-01T04:43:41;17.70;99.90
1994;DHT22;998;49.906;10.908;2023-08-01T04:46:09;17.70;99.90
1994;DHT22;998;49.906;10.908;2023-08-01T04:48:37;17.70;99.90
1994;DHT22;998;49.906;10.908;2023-08-01T04:51:05;17.70;99.90
1994;DHT22;998;49.906;10.908;2023-08-01T04:53:32;17.70;99.90
1994;DHT22;998;49.906;10.908;2023-08-01T04:55:59;17.70;99.90
1994;DHT22;998;49.906;10.908;2023-08-01T04:58:27;17.70;99.90
1994;DHT22;998;49.906;10.908;2023-08-01T05:00:56;17.80;99.90
1994;DHT22;998;49.906;10.908;2023-08-01T05:03:23;17.70;99.90
1994;DHT22;998;49.906;10.908;2023-08-01T05:05:52;17.80;99.90
1994;DHT22;998;49.906;10.908;2023-08-01T05:08:19;17.80;99.90
1994;DHT22;998;49.906;10.908;2023-08-01T05:10:47;17.80;99.90
1994;DHT22;998;49.906;10.908;2023-08-01T05:13:14;17.80;99.90
1994;DHT22;998;49.906;10.908;2023-08-01T05:15:44;17.80;99.90
1994;DHT22;998;49.906;10.908;2023-08-01T05:18:13;17.80;99.90
1994;DHT22;998;49.906;10.908;2023-08-01T05:20:40;17.80;99.90
1994;DHT22;998;49.906;10.908;2023-08-01T05:23:09;17.80;99.90
1994;DHT22;998;49.906;10.908;2023-08-01T05:25:37;17.90;99.90
1994;DHT22;998;49.906;10.908;2023-08-01T05:28:04;17.80;99.90
1994;DHT22;998;49.906;10.908;2023-08-01T05:30:32;17.80;99.90
1994;DHT22;998;49.906;10.908;2023-08-01T05:32:59;17.90;99.90
1994;DHT22;998;49.906;10.908;2023-08-01T05:35:26;17.90;99.90
1994;DHT22;998;49.906;10.908;2023-08-01T05:37:54;17.90;99.90
1994;DHT22;998;49.906;10.908;2023-08-01T05:40:22;17.90;99.90
1994;DHT22;998;49.906;10.908;2023-08-01T05:42:50;17.90;99.90
1994;DHT22;998;49.906;10.908;2023-08-01T05:45:17;17.90;99.90
1994;DHT22;998;49.906;10.908;2023-08-01T05:47:45;17.90;99.90
1994;DHT22;998;49.906;10.908;2023-08-01T05:50:12;17.90;99.90
1994;DHT22;998;49.906;10.908;2023-08-01T05:52:40;17.90;99.90
1994;DHT22;998;49.906;10.908;2023-08-01T05:55:08;17.90;99.90
1994;DHT22;998;49.906;10.908;2023-08-01T05:57:37;17.90;99.90
1994;DHT22;998;49.906;10.908;2023-08-01T06:00:05;17.90;99.90
1994;DHT22;998;49.906;10.908;2023-08-01T06:02:32;17.90;99.90
1994;DHT22;998;49.906;10.908;2023-08-01T06:04:59;17.90;99.90
1994;DHT22;998;49.906;10.908;2023-08-01T06:07:27;17.90;99.90
1994;DHT22;998;49.906;10.908;2023-08-01T06:09:54;17.90;99.90
1994;DHT22;998;49.906;10.908;2023-08-01T06:12:22;17.90;99.90
1994;DHT22;998;49.906;10.908;2023-08-01T06:14:51;18.40;99.90
1994;DHT22;998;49.906;10.908;2023-08-01T06:17:18;17.90;99.90
1994;DHT22;998;49.906;10.908;2023-08-01T06:19:45;17.90;99.90
1994;DHT22;998;49.906;10.908;2023-08-01T06:22:13;17.80;99.90
1994;DHT22;998;49.906;10.908;2023-08-01T06:24:40;17.80;99.90
1994;DHT22;998;49.906;10.908;2023-08-01T06:27:08;17.80;99.90
1994;DHT22;998;49.906;10.908;2023-08-01T06:29:35;17.80;99.90
1994;DHT22;998;49.906;10.908;2023-08-01T06:32:05;17.80;99.90
1994;DHT22;998;49.906;10.908;2023-08-01T06:34:32;17.80;99.90
1994;DHT22;998;49.906;10.908;2023-08-01T06:37:00;17.80;99.90
1994;DHT22;998;49.906;10.908;2023-08-01T06:39:27;17.80;99.90
1994;DHT22;998;49.906;10.908;2023-08-01T06:41:54;17.80;99.90
1994;DHT22;998;49.906;10.908;2023-08-01T06:44:22;17.80;99.90
1994;DHT22;998;49.906;10.908;2023-08-01T06:46:49;17.80;99.90
1994;DHT22;998;49.906;10.908;2023-08-01T06:49:18;17.80;99.90
1994;DHT22;998;49.906;10.908;2023-08-01T06:51:45;17.80;99.90
1994;DHT22;998;49.906;10.908;2023-08-01T06:54:13;17.70;99.90
1994;DHT22;998;49.906;10.908;2023-08-01T06:56:40;17.70;99.90
1994;DHT22;998;49.906;10.908;2023-08-01T06:59:13;17.70;99.90
1994;DHT22;998;49.906;10.908;2023-08-01T07:01:41;17.70;99.90
1994;DHT22;998;49.906;10.908;2023-08-01T07:04:09;17.70;99.90
1994;DHT22;998;49.906;10.908;2023-08-01T07:06:38;17.70;99.90
1994;DHT22;998;49.906;10.908;2023-08-01T07:09:06;17.70;99.90
1994;DHT22;998;49.906;10.908;2023-08-01T07:11:34;17.60;99.90
1994;DHT22;998;49.906;10.908;2023-08-01T07:14:01;17.70;99.90
1994;DHT22;998;49.906;10.908;2023-08-01T07:16:28;17.70;99.90
1994;DHT22;998;49.906;10.908;2023-08-01T07:18:57;17.70;99.90
1994;DHT22;998;49.906;10.908;2023-08-01T07:21:25;17.70;99.90
1994;DHT22;998;49.906;10.908;2023-08-01T07:23:53;17.70;99.90
1994;DHT22;998;49.906;10.908;2023-08-01T07:26:21;17.70;99.90
1994;DHT22;998;49.906;10.908;2023-08-01T07:28:48;17.80;99.90
1994;DHT22;998;49.906;10.908;2023-08-01T07:31:16;17.80;99.90
1994;DHT22;998;49.906;10.908;2023-08-01T07:33:43;17.80;99.90
1994;DHT22;998;49.906;10.908;2023-08-01T07:36:10;17.80;99.90
1994;DHT22;998;49.906;10.908;2023-08-01T07:38:38;17.70;99.90
1994;DHT22;998;49.906;10.908;2023-08-01T07:41:07;17.80;99.90
1994;DHT22;998;49.906;10.908;2023-08-01T07:43:34;17.80;99.90
1994;DHT22;998;49.906;10.908;2023-08-01T07:46:01;17.80;99.90
1994;DHT22;998;49.906;10.908;2023-08-01T07:48:29;17.80;99.90
1994;DHT22;998;49.906;10.908;2023-08-01T07:50:56;17.80;99.90
1994;DHT22;998;49.906;10.908;2023-08-01T07:53:23;17.80;99.90
1994;DHT22;998;49.906;10.908;2023-08-01T07:55:52;17.80;99.90
1994;DHT22;998;49.906;10.908;2023-08-01T07:58:21;17.90;99.90
1994;DHT22;998;49.906;10.908;2023-08-01T08:00:48;17.90;99.90
1994;DHT22;998;49.906;10.908;2023-08-01T08:03:15;17.80;99.90
1994;DHT22;998;49.906;10.908;2023-08-01T08:05:43;17.80;99.90
1994;DHT22;998;49.906;10.908;2023-08-01T08:08:10;17.80;99.90
1994;DHT22;998;49.906;10.908;2023-08-01T08:10:38;17.80;99.90
1994;DHT22;998;49.906;10.908;2023-08-01T08:13:05;17.80;99.90
1994;DHT22;998;49.906;10.908;2023-08-01T08:15:34;17.80;99.90
1994;DHT22;998;49.906;10.908;2023-08-01T08:18:01;17.80;99.90
1994;DHT22;998;49.906;10.908;2023-08-01T08:20:30;17.20;99.90
1994;DHT22;998;49.906;10.908;2023-08-01T08:22:57;17.80;99.90
1994;DHT22;998;49.906;10.908;2023-08-01T08:25:24;17.80;99.90
1994;DHT22;998;49.906;10.908;2023-08-01T08:27:52;17.80;99.90
1994;DHT22;998;49.906;10.908;2023-08-01T08:30:19;17.80;99.90
1994;DHT22;998;49.906;10.908;2023-08-01T08:32:48;17.70;99.90
1994;DHT22;998;49.906;10.908;2023-08-01T08:35:15;17.80;99.90
1994;DHT22;998;49.906;10.908;2023-08-01T08:37:42;17.80;99.90
1994;DHT22;998;49.906;10.908;2023-08-01T08:40:10;17.80;99.90
1994;DHT22;998;49.906;10.908;2023-08-01T08:42:39;17.80;99.90
1994;DHT22;998;49.906;10.908;2023-08-01T08:45:07;17.80;99.90
1994;DHT22;998;49.906;10.908;2023-08-01T08:47:38;17.80;99.90
1994;DHT22;998;49.906;10.908;2023-08-01T08:50:09;17.80;99.90
1994;DHT22;998;49.906;10.908;2023-08-01T08:52:37;17.80;99.90
1994;DHT22;998;49.906;10.908;2023-08-01T08:55:06;17.90;99.90
1994;DHT22;998;49.906;10.908;2023-08-01T08:57:34;17.80;99.90
1994;DHT22;998;49.906;10.908;2023-08-01T09:00:03;17.90;99.90
1994;DHT22;998;49.906;10.908;2023-08-01T09:02:32;17.90;99.90
1994;DHT22;998;49.906;10.908;2023-08-01T09:04:59;17.90;99.90
1994;DHT22;998;49.906;10.908;2023-08-01T09:07:29;17.80;99.90
1994;DHT22;998;49.906;10.908;2023-08-01T09:09:57;17.90;99.90
1994;DHT22;998;49.906;10.908;2023-08-01T09:12:24;17.90;99.90
1994;DHT22;998;49.906;10.908;2023-08-01T09:14:51;17.90;99.90
1994;DHT22;998;49.906;10.908;2023-08-01T09:17:19;17.90;99.90
1994;DHT22;998;49.906;10.908;2023-08-01T09:19:46;18.00;99.90
1994;DHT22;998;49.906;10.908;2023-08-01T09:22:14;18.00;99.90
1994;DHT22;998;49.906;10.908;2023-08-01T09:24:52;18.00;99.90
1994;DHT22;998;49.906;10.908;2023-08-01T09:27:20;18.00;99.90
1994;DHT22;998;49.906;10.908;2023-08-01T09:29:48;18.00;99.90
1994;DHT22;998;49.906;10.908;2023-08-01T09:32:15;18.10;99.90
1994;DHT22;998;49.906;10.908;2023-08-01T09:34:44;18.10;99.90
1994;DHT22;998;49.906;10.908;2023-08-01T09:37:11;18.00;99.90
1994;DHT22;998;49.906;10.908;2023-08-01T09:39:39;18.00;99.90
1994;DHT22;998;49.906;10.908;2023-08-01T09:42:09;18.10;99.90
1994;DHT22;998;49.906;10.908;2023-08-01T09:44:37;18.10;99.90
1994;DHT22;998;49.906;10.908;2023-08-01T09:47:05;18.20;99.90
1994;DHT22;998;49.906;10.908;2023-08-01T09:49:33;18.20;99.90
1994;DHT22;998;49.906;10.908;2023-08-01T09:52:02;18.20;99.90
1994;DHT22;998;49.906;10.908;2023-08-01T09:54:30;18.30;99.90
1994;DHT22;998;49.906;10.908;2023-08-01T09:56:58;18.30;99.90
1994;DHT22;998;49.906;10.908;2023-08-01T09:59:27;18.40;99.90
1994;DHT22;998;49.906;10.908;2023-08-01T10:01:55;18.50;99.90
1994;DHT22;998;49.906;10.908;2023-08-01T10:04:26;18.40;99.90
1994;DHT22;998;49.906;10.908;2023-08-01T10:06:57;18.50;99.90
1994;DHT22;998;49.906;10.908;2023-08-01T10:09:25;18.40;99.90
1994;DHT22;998;49.906;10.908;2023-08-01T10:11:56;18.40;99.90
1994;DHT22;998;49.906;10.908;2023-08-01T10:14:26;18.40;99.90
1994;DHT22;998;49.906;10.908;2023-08-01T10:16:54;18.40;99.90
1994;DHT22;998;49.906;10.908;2023-08-01T10:19:21;18.50;99.90
1994;DHT22;998;49.906;10.908;2023-08-01T10:21:48;18.40;99.90
1994;DHT22;998;49.906;10.908;2023-08-01T10:24:16;18.40;99.90
1994;DHT22;998;49.906;10.908;2023-08-01T10:26:44;18.40;99.90
1994;DHT22;998;49.906;10.908;2023-08-01T10:29:12;18.20;99.90
1994;DHT22;998;49.906;10.908;2023-08-01T10:31:50;18.00;99.90
1994;DHT22;998;49.906;10.908;2023-08-01T10:34:19;17.90;99.90
1994;DHT22;998;49.906;10.908;2023-08-01T10:36:54;17.70;99.90
1994;DHT22;998;49.906;10.908;2023-08-01T10:39:22;17.60;99.90
1994;DHT22;998;49.906;10.908;2023-08-01T10:41:57;17.60;99.90
1994;DHT22;998;49.906;10.908;2023-08-01T10:44:25;17.50;99.90
1994;DHT22;998;49.906;10.908;2023-08-01T10:46:56;17.40;99.90
1994;DHT22;998;49.906;10.908;2023-08-01T10:49:34;17.30;99.90
1994;DHT22;998;49.906;10.908;2023-08-01T10:52:01;17.20;99.90
1994;DHT22;998;49.906;10.908;2023-08-01T10:54:29;17.10;99.90
1994;DHT22;998;49.906;10.908;2023-08-01T10:56:58;16.90;99.90
1994;DHT22;998;49.906;10.908;2023-08-01T10:59:25;16.80;99.90
1994;DHT22;998;49.906;10.908;2023-08-01T11:01:58;16.80;99.90
1994;DHT22;998;49.906;10.908;2023-08-01T11:04:25;16.80;99.90
1994;DHT22;998;49.906;10.908;2023-08-01T11:06:54;16.90;99.90
1994;DHT22;998;49.906;10.908;2023-08-01T11:09:24;16.80;99.90
1994;DHT22;998;49.906;10.908;2023-08-01T11:11:53;16.90;99.90
1994;DHT22;998;49.906;10.908;2023-08-01T11:14:21;16.90;99.90
1994;DHT22;998;49.906;10.908;2023-08-01T11:16:49;16.90;99.90
1994;DHT22;998;49.906;10.908;2023-08-01T11:19:19;17.00;99.90
1994;DHT22;998;49.906;10.908;2023-08-01T11:21:47;17.10;99.90
1994;DHT22;998;49.906;10.908;2023-08-01T11:24:15;17.20;99.90
1994;DHT22;998;49.906;10.908;2023-08-01T11:26:43;17.20;99.90
1994;DHT22;998;49.906;10.908;2023-08-01T11:29:11;17.30;99.90
1994;DHT22;998;49.906;10.908;2023-08-01T11:31:39;17.50;99.90
1994;DHT22;998;49.906;10.908;2023-08-01T11:34:06;17.60;99.90
1994;DHT22;998;49.906;10.908;2023-08-01T11:36:36;17.70;99.90
1994;DHT22;998;49.906;10.908;2023-08-01T11:39:04;17.80;99.90
1994;DHT22;998;49.906;10.908;2023-08-01T11:41:31;17.90;99.90
1994;DHT22;998;49.906;10.908;2023-08-01T11:44:02;18.00;99.90
1994;DHT22;998;49.906;10.908;2023-08-01T11:46:34;18.10;99.90
1994;DHT22;998;49.906;10.908;2023-08-01T11:49:02;18.30;99.90
1994;DHT22;998;49.906;10.908;2023-08-01T11:51:30;18.50;99.90
1994;DHT22;998;49.906;10.908;2023-08-01T11:54:03;18.60;99.90
1994;DHT22;998;49.906;10.908;2023-08-01T11:56:30;18.70;99.90
1994;DHT22;998;49.906;10.908;2023-08-01T11:58:58;18.80;99.90
1994;DHT22;998;49.906;10.908;2023-08-01T12:01:25;18.90;99.90
1994;DHT22;998;49.906;10.908;2023-08-01T12:03:53;19.10;99.90
1994;DHT22;998;49.906;10.908;2023-08-01T12:06:22;19.10;99.90
1994;DHT22;998;49.906;10.908;2023-08-01T12:08:52;19.30;99.90
1994;DHT22;998;49.906;10.908;2023-08-01T12:11:22;19.40;99.90
1994;DHT22;998;49.906;10.908;2023-08-01T12:14:01;19.50;99.90
1994;DHT22;998;49.906;10.908;2023-08-01T12:16:28;19.60;99.90
1994;DHT22;998;49.906;10.908;2023-08-01T12:18:56;19.60;99.90
1994;DHT22;998;49.906;10.908;2023-08-01T12:21:23;19.70;99.90
1994;DHT22;998;49.906;10.908;2023-08-01T12:23:51;20.10;99.90
1994;DHT22;998;49.906;10.908;2023-08-01T12:26:18;20.50;99.90
1994;DHT22;998;49.906;10.908;2023-08-01T12:28:47;20.80;99.90
1994;DHT22;998;49.906;10.908;2023-08-01T12:31:17;21.10;99.90
1994;DHT22;998;49.906;10.908;2023-08-01T12:33:45;21.30;99.90
1994;DHT22;998;49.906;10.908;2023-08-01T12:36:13;21.50;99.90
1994;DHT22;998;49.906;10.908;2023-08-01T12:38:41;21.60;99.90
1994;DHT22;998;49.906;10.908;2023-08-01T12:41:08;21.70;99.90
1994;DHT22;998;49.906;10.908;2023-08-01T12:43:37;21.90;99.90
1994;DHT22;998;49.906;10.908;2023-08-01T12:46:05;22.10;99.90
1994;DHT22;998;49.906;10.908;2023-08-01T12:48:32;22.20;99.90
1994;DHT22;998;49.906;10.908;2023-08-01T12:51:00;22.20;99.90
1994;DHT22;998;49.906;10.908;2023-08-01T12:53:27;22.50;99.90
1994;DHT22;998;49.906;10.908;2023-08-01T12:55:55;22.80;99.90
1994;DHT22;998;49.906;10.908;2023-08-01T12:58:22;23.00;99.90
1994;DHT22;998;49.906;10.908;2023-08-01T13:00:49;23.40;99.90
1994;DHT22;998;49.906;10.908;2023-08-01T13:03:18;23.60;99.90
1994;DHT22;998;49.906;10.908;2023-08-01T13:05:45;23.70;99.90
1994;DHT22;998;49.906;10.908;2023-08-01T13:08:13;23.50;99.90
1994;DHT22;998;49.906;10.908;2023-08-01T13:10:40;23.60;99.90
1994;DHT22;998;49.906;10.908;2023-08-01T13:13:07;23.20;99.90
1994;DHT22;998;49.906;10.908;2023-08-01T13:15:34;22.80;99.90
1994;DHT22;998;49.906;10.908;2023-08-01T13:18:01;22.50;99.90
1994;DHT22;998;49.906;10.908;2023-08-01T13:20:30;22.00;99.90
1994;DHT22;998;49.906;10.908;2023-08-01T13:22:57;21.70;99.90
1994;DHT22;998;49.906;10.908;2023-08-01T13:25:24;22.00;99.90
1994;DHT22;998;49.906;10.908;2023-08-01T13:27:52;22.30;99.90
1994;DHT22;998;49.906;10.908;2023-08-01T13:30:19;22.70;99.90
1994;DHT22;998;49.906;10.908;2023-08-01T13:32:47;23.20;99.90
1994;DHT22;998;49.906;10.908;2023-08-01T13:35:14;23.20;99.90
1994;DHT22;998;49.906;10.908;2023-08-01T13:37:43;22.70;99.90
1994;DHT22;998;49.906;10.908;2023-08-01T13:40:11;22.40;99.90
1994;DHT22;998;49.906;10.908;2023-08-01T13:42:40;22.20;99.90
1994;DHT22;998;49.906;10.908;2023-08-01T13:45:08;22.00;99.90
1994;DHT22;998;49.906;10.908;2023-08-01T13:47:35;21.80;99.90
1994;DHT22;998;49.906;10.908;2023-08-01T13:50:03;21.60;99.90
1994;DHT22;998;49.906;10.908;2023-08-01T13:52:30;21.50;99.90
1994;DHT22;998;49.906;10.908;2023-08-01T13:54:59;21.50;99.90
1994;DHT22;998;49.906;10.908;2023-08-01T13:57:28;21.50;99.90
1994;DHT22;998;49.906;10.908;2023-08-01T13:59:55;21.60;99.90
1994;DHT22;998;49.906;10.908;2023-08-01T14:02:23;21.60;99.90
1994;DHT22;998;49.906;10.908;2023-08-01T14:04:51;21.60;99.90
1994;DHT22;998;49.906;10.908;2023-08-01T14:07:18;21.60;99.90
1994;DHT22;998;49.906;10.908;2023-08-01T14:09:45;21.60;99.90
1994;DHT22;998;49.906;10.908;2023-08-01T14:12:13;21.50;99.90
1994;DHT22;998;49.906;10.908;2023-08-01T14:14:42;21.30;99.90
1994;DHT22;998;49.906;10.908;2023-08-01T14:17:09;21.20;99.90
1994;DHT22;998;49.906;10.908;2023-08-01T14:19:36;20.90;99.90
1994;DHT22;998;49.906;10.908;2023-08-01T14:22:04;20.80;99.90
1994;DHT22;998;49.906;10.908;2023-08-01T14:24:32;21.10;99.90
1994;DHT22;998;49.906;10.908;2023-08-01T14:26:59;21.50;99.90
1994;DHT22;998;49.906;10.908;2023-08-01T14:29:28;22.00;99.90
1994;DHT22;998;49.906;10.908;2023-08-01T14:31:55;23.30;99.90
1994;DHT22;998;49.906;10.908;2023-08-01T14:34:23;22.50;99.90
1994;DHT22;998;49.906;10.908;2023-08-01T14:36:50;22.70;99.90
1994;DHT22;998;49.906;10.908;2023-08-01T14:39:17;22.60;99.90
1994;DHT22;998;49.906;10.908;2023-08-01T14:41:45;22.40;99.90
1994;DHT22;998;49.906;10.908;2023-08-01T14:44:12;22.40;99.90
1994;DHT22;998;49.906;10.908;2023-08-01T14:46:41;22.60;99.90
1994;DHT22;998;49.906;10.908;2023-08-01T14:49:08;22.90;99.90
1994;DHT22;998;49.906;10.908;2023-08-01T14:51:35;22.70;99.90
1994;DHT22;998;49.906;10.908;2023-08-01T14:54:03;22.50;99.90
1994;DHT22;998;49.906;10.908;2023-08-01T14:56:31;22.30;99.90
1994;DHT22;998;49.906;10.908;2023-08-01T14:58:58;22.20;99.90
1994;DHT22;998;49.906;10.908;2023-08-01T15:01:26;22.10;99.90
1994;DHT22;998;49.906;10.908;2023-08-01T15:03:55;21.90;99.90
1994;DHT22;998;49.906;10.908;2023-08-01T15:06:22;21.70;99.90
1994;DHT22;998;49.906;10.908;2023-08-01T15:08:50;21.80;99.90
1994;DHT22;998;49.906;10.908;2023-08-01T15:11:17;21.70;99.90
1994;DHT22;998;49.906;10.908;2023-08-01T15:13:44;21.70;99.90
1994;DHT22;998;49.906;10.908;2023-08-01T15:16:12;21.60;99.90
1994;DHT22;998;49.906;10.908;2023-08-01T15:18:40;21.50;99.90
1994;DHT22;998;49.906;10.908;2023-08-01T15:21:09;21.50;99.90
1994;DHT22;998;49.906;10.908;2023-08-01T15:23:36;21.50;99.90
1994;DHT22;998;49.906;10.908;2023-08-01T15:26:04;21.60;99.90
1994;DHT22;998;49.906;10.908;2023-08-01T15:28:31;21.40;99.90
1994;DHT22;998;49.906;10.908;2023-08-01T15:31:03;21.40;99.90
1994;DHT22;998;49.906;10.908;2023-08-01T15:33:32;21.40;99.90
1994;DHT22;998;49.906;10.908;2023-08-01T15:36:01;21.50;99.90
1994;DHT22;998;49.906;10.908;2023-08-01T15:38:30;21.40;99.90
1994;DHT22;998;49.906;10.908;2023-08-01T15:40:58;21.50;99.90
1994;DHT22;998;49.906;10.908;2023-08-01T15:43:29;21.50;99.90
1994;DHT22;998;49.906;10.908;2023-08-01T15:45:56;22.00;99.90
1994;DHT22;998;49.906;10.908;2023-08-01T15:48:24;21.70;99.90
1994;DHT22;998;49.906;10.908;2023-08-01T15:50:51;21.50;99.90
1994;DHT22;998;49.906;10.908;2023-08-01T15:53:19;21.50;99.90
1994;DHT22;998;49.906;10.908;2023-08-01T15:55:54;21.40;99.90
1994;DHT22;998;49.906;10.908;2023-08-01T15:58:21;21.30;99.90
1994;DHT22;998;49.906;10.908;2023-08-01T16:00:48;21.20;99.90
1994;DHT22;998;49.906;10.908;2023-08-01T16:03:15;21.10;99.90
1994;DHT22;998;49.906;10.908;2023-08-01T16:05:43;21.00;99.90